createdAt,value
2018-07-24T00:00:05.936Z,18.94
2018-07-24T00:01:05.838Z,18.94
2018-07-24T00:02:06.586Z,18.94
2018-07-24T00:03:06.249Z,18.94
2018-07-24T00:04:06.344Z,18.88
2018-07-24T00:05:10.798Z,18.88
2018-07-24T00:06:06.240Z,18.81
2018-07-24T00:07:06.109Z,18.81
2018-07-24T00:08:05.769Z,18.81
2018-07-24T00:09:06.646Z,18.81
2018-07-24T00:10:05.935Z,18.75
2018-07-24T00:11:05.678Z,18.75
2018-07-24T00:12:05.771Z,18.75
2018-07-24T00:13:06.038Z,18.69
2018-07-24T00:14:06.337Z,18.75
2018-07-24T00:15:06.020Z,18.69
2018-07-24T00:16:05.684Z,18.69
2018-07-24T00:17:11.187Z,18.62
2018-07-24T00:18:06.027Z,18.62
2018-07-24T00:19:11.328Z,18.62
2018-07-24T00:20:05.464Z,18.62
2018-07-24T00:21:05.791Z,18.56
2018-07-24T00:22:05.783Z,18.56
2018-07-24T00:23:05.447Z,18.56
2018-07-24T00:24:06.337Z,18.56
2018-07-24T00:25:05.548Z,18.50
2018-07-24T00:26:05.465Z,18.50
2018-07-24T00:27:05.856Z,18.50
2018-07-24T00:28:06.586Z,18.50
2018-07-24T00:29:06.798Z,18.44
2018-07-24T00:30:06.717Z,18.44
2018-07-24T00:31:06.012Z,18.38
2018-07-24T00:32:06.043Z,18.38
2018-07-24T00:33:06.169Z,18.38
2018-07-24T00:34:06.048Z,18.38
2018-07-24T00:35:05.919Z,18.31
2018-07-24T00:36:06.329Z,18.31
2018-07-24T00:37:06.337Z,18.31
2018-07-24T00:38:06.044Z,18.31
2018-07-24T00:39:05.943Z,18.25
2018-07-24T00:40:05.818Z,18.25
2018-07-24T00:41:06.171Z,18.25
2018-07-24T00:42:06.046Z,18.19
2018-07-24T00:43:05.453Z,18.19
2018-07-24T00:44:06.476Z,18.12
2018-07-24T00:45:06.171Z,18.12
2018-07-24T00:46:05.467Z,18.12
2018-07-24T00:47:06.425Z,18.12
2018-07-24T00:48:06.013Z,18.06
2018-07-24T00:49:05.820Z,18.06
2018-07-24T00:50:05.664Z,18.06
2018-07-24T00:51:06.156Z,18.06
2018-07-24T00:52:05.752Z,18.06
2018-07-24T00:53:05.596Z,18.06
2018-07-24T00:54:05.873Z,18.00
2018-07-24T00:55:05.686Z,18.00
2018-07-24T00:56:06.323Z,18.00
2018-07-24T00:57:05.959Z,18.00
2018-07-24T00:58:06.410Z,17.94
2018-07-24T00:59:06.052Z,17.94
2018-07-24T01:00:06.157Z,17.94
2018-07-24T01:01:05.735Z,17.94
2018-07-24T01:02:06.514Z,17.94
2018-07-24T01:03:07.281Z,17.94
2018-07-24T01:04:06.412Z,17.88
2018-07-24T01:05:06.009Z,17.81
2018-07-24T01:06:06.011Z,17.88
2018-07-24T01:07:05.605Z,17.81
2018-07-24T01:08:05.784Z,17.81
2018-07-24T01:09:06.161Z,17.81
2018-07-24T01:10:05.453Z,17.81
2018-07-24T01:11:10.954Z,17.75
2018-07-24T01:12:06.175Z,17.75
2018-07-24T01:13:06.335Z,17.75
2018-07-24T01:14:05.695Z,17.75
2018-07-24T01:15:06.006Z,17.75
2018-07-24T01:16:05.945Z,17.75
2018-07-24T01:17:06.001Z,17.69
2018-07-24T01:18:06.013Z,17.69
2018-07-24T01:19:06.415Z,17.69
2018-07-24T01:20:05.468Z,17.69
2018-07-24T01:21:06.334Z,17.69
2018-07-24T01:22:06.261Z,17.69
2018-07-24T01:23:05.861Z,17.62
2018-07-24T01:24:05.720Z,17.62
2018-07-24T01:25:06.889Z,17.62
2018-07-24T01:26:06.253Z,17.62
2018-07-24T01:27:07.069Z,17.62
2018-07-24T01:28:06.045Z,17.56
2018-07-24T01:29:05.387Z,17.56
2018-07-24T01:30:11.028Z,17.56
2018-07-24T01:31:06.330Z,17.50
2018-07-24T01:32:06.056Z,17.50
2018-07-24T01:33:05.700Z,17.50
2018-07-24T01:34:06.881Z,17.50
2018-07-24T01:35:06.682Z,17.50
2018-07-24T01:36:06.495Z,17.44
2018-07-24T01:37:05.992Z,17.44
2018-07-24T01:38:06.260Z,17.44
2018-07-24T01:39:05.634Z,17.44
2018-07-24T01:40:05.631Z,17.44
2018-07-24T01:41:05.900Z,17.38
2018-07-24T01:42:06.329Z,17.38
2018-07-24T01:43:06.498Z,17.38
2018-07-24T01:44:05.835Z,17.38
2018-07-24T01:45:05.947Z,17.38
2018-07-24T01:46:06.134Z,17.38
2018-07-24T01:47:05.794Z,17.38
2018-07-24T01:48:05.467Z,17.38
2018-07-24T01:49:05.709Z,17.38
2018-07-24T01:50:06.541Z,17.31
2018-07-24T01:51:05.450Z,17.31
2018-07-24T01:52:06.089Z,17.31
2018-07-24T01:53:06.038Z,17.31
2018-07-24T01:54:05.788Z,17.31
2018-07-24T01:55:06.082Z,17.31
2018-07-24T01:56:06.166Z,17.25
2018-07-24T01:57:05.542Z,17.25
2018-07-24T01:58:05.610Z,17.25
2018-07-24T01:59:06.003Z,17.25
2018-07-24T02:00:06.717Z,17.25
2018-07-24T02:01:05.531Z,17.25
2018-07-24T02:02:05.629Z,17.25
2018-07-24T02:03:06.957Z,17.19
2018-07-24T02:04:06.215Z,17.25
2018-07-24T02:05:05.541Z,17.25
2018-07-24T02:06:06.166Z,17.19
2018-07-24T02:07:06.095Z,17.19
2018-07-24T02:08:05.780Z,17.19
2018-07-24T02:09:06.415Z,17.19
2018-07-24T02:10:06.423Z,17.12
2018-07-24T02:11:06.723Z,17.12
2018-07-24T02:12:06.255Z,17.12
2018-07-24T02:13:05.851Z,17.12
2018-07-24T02:14:05.938Z,17.12
2018-07-24T02:15:05.611Z,17.06
2018-07-24T02:16:06.376Z,17.06
2018-07-24T02:17:06.264Z,17.06
2018-07-24T02:18:06.480Z,17.06
2018-07-24T02:19:05.939Z,17.06
2018-07-24T02:20:05.953Z,17.06
2018-07-24T02:21:05.932Z,17.06
2018-07-24T02:22:05.888Z,17.06
2018-07-24T02:23:10.782Z,17.06
2018-07-24T02:24:05.767Z,17.06
2018-07-24T02:25:06.358Z,17.00
2018-07-24T02:26:05.624Z,17.00
2018-07-24T02:27:05.536Z,17.00
2018-07-24T02:28:06.023Z,17.00
2018-07-24T02:29:05.840Z,17.00
2018-07-24T02:30:05.613Z,17.00
2018-07-24T02:31:06.775Z,17.00
2018-07-24T02:32:06.332Z,17.00
2018-07-24T02:33:06.253Z,16.94
2018-07-24T02:34:06.207Z,16.94
2018-07-24T02:35:05.779Z,16.94
2018-07-24T02:36:05.620Z,16.94
2018-07-24T02:37:06.022Z,16.94
2018-07-24T02:38:06.832Z,16.94
2018-07-24T02:39:06.093Z,16.88
2018-07-24T02:40:06.093Z,16.94
2018-07-24T02:41:05.972Z,16.88
2018-07-24T02:42:05.873Z,16.88
2018-07-24T02:43:06.338Z,16.81
2018-07-24T02:44:05.635Z,16.81
2018-07-24T02:45:11.189Z,16.81
2018-07-24T02:46:11.261Z,16.81
2018-07-24T02:47:05.460Z,16.75
2018-07-24T02:48:06.042Z,16.75
2018-07-24T02:49:05.616Z,16.75
2018-07-24T02:50:06.345Z,16.75
2018-07-24T02:51:06.398Z,16.75
2018-07-24T02:52:06.094Z,16.75
2018-07-24T02:53:06.106Z,16.75
2018-07-24T02:54:05.668Z,16.75
2018-07-24T02:55:06.334Z,16.69
2018-07-24T02:56:06.507Z,16.69
2018-07-24T02:57:06.090Z,16.69
2018-07-24T02:58:05.936Z,16.69
2018-07-24T02:59:06.004Z,16.69
2018-07-24T03:00:06.169Z,16.69
2018-07-24T03:01:06.025Z,16.69
2018-07-24T03:02:05.453Z,16.62
2018-07-24T03:03:05.699Z,16.62
2018-07-24T03:04:06.638Z,16.62
2018-07-24T03:05:05.469Z,16.62
2018-07-24T03:06:05.699Z,16.56
2018-07-24T03:07:06.174Z,16.56
2018-07-24T03:08:05.904Z,16.56
2018-07-24T03:09:05.696Z,16.56
2018-07-24T03:10:06.174Z,16.56
2018-07-24T03:11:06.538Z,16.50
2018-07-24T03:12:05.540Z,16.50
2018-07-24T03:13:05.539Z,16.50
2018-07-24T03:14:05.935Z,16.50
2018-07-24T03:15:05.633Z,16.50
2018-07-24T03:16:06.186Z,16.50
2018-07-24T03:17:06.011Z,16.50
2018-07-24T03:18:10.811Z,16.50
2018-07-24T03:19:06.109Z,16.50
2018-07-24T03:20:05.550Z,16.44
2018-07-24T03:21:06.438Z,16.44
2018-07-24T03:22:06.345Z,16.44
2018-07-24T03:23:05.795Z,16.44
2018-07-24T03:24:06.529Z,16.44
2018-07-24T03:25:06.124Z,16.44
2018-07-24T03:26:05.781Z,16.44
2018-07-24T03:27:06.161Z,16.44
2018-07-24T03:28:05.964Z,16.38
2018-07-24T03:29:05.450Z,16.38
2018-07-24T03:30:05.704Z,16.38
2018-07-24T03:31:06.429Z,16.38
2018-07-24T03:32:06.333Z,16.38
2018-07-24T03:33:06.617Z,16.31
2018-07-24T03:34:06.880Z,16.31
2018-07-24T03:35:06.490Z,16.31
2018-07-24T03:36:07.318Z,16.31
2018-07-24T03:37:06.407Z,16.25
2018-07-24T03:38:05.617Z,16.25
2018-07-24T03:39:05.538Z,16.25
2018-07-24T03:40:05.461Z,16.25
2018-07-24T03:41:06.272Z,16.25
2018-07-24T03:42:06.236Z,16.25
2018-07-24T03:43:05.922Z,16.25
2018-07-24T03:44:06.188Z,16.25
2018-07-24T03:45:05.802Z,16.25
2018-07-24T03:46:06.342Z,16.25
2018-07-24T03:47:06.134Z,16.25
2018-07-24T03:48:06.133Z,16.25
2018-07-24T03:49:05.994Z,16.25
2018-07-24T03:50:06.361Z,16.25
2018-07-24T03:51:05.540Z,16.25
2018-07-24T03:52:05.375Z,16.25
2018-07-24T03:53:06.667Z,16.25
2018-07-24T03:54:05.774Z,16.19
2018-07-24T03:55:06.047Z,16.19
2018-07-24T03:56:06.283Z,16.25
2018-07-24T03:57:05.609Z,16.25
2018-07-24T03:58:05.697Z,16.25
2018-07-24T03:59:06.303Z,16.25
2018-07-24T04:00:05.862Z,16.25
2018-07-24T04:01:05.936Z,16.25
2018-07-24T04:02:06.205Z,16.25
2018-07-24T04:03:06.175Z,16.25
2018-07-24T04:04:10.815Z,16.31
2018-07-24T04:05:05.545Z,16.31
2018-07-24T04:06:06.070Z,16.38
2018-07-24T04:07:06.615Z,16.44
2018-07-24T04:08:05.897Z,16.50
2018-07-24T04:09:05.525Z,16.56
2018-07-24T04:10:06.095Z,16.62
2018-07-24T04:11:05.617Z,16.62
2018-07-24T04:12:06.026Z,16.62
2018-07-24T04:13:06.209Z,16.69
2018-07-24T04:14:06.336Z,16.75
2018-07-24T04:15:05.770Z,16.81
2018-07-24T04:16:06.333Z,16.88
2018-07-24T04:17:05.852Z,17.00
2018-07-24T04:18:05.634Z,17.06
2018-07-24T04:19:05.912Z,17.12
2018-07-24T04:20:06.015Z,17.25
2018-07-24T04:21:06.166Z,17.31
2018-07-24T04:22:06.099Z,17.44
2018-07-24T04:23:06.173Z,17.50
2018-07-24T04:24:06.304Z,17.56
2018-07-24T04:25:06.206Z,17.69
2018-07-24T04:26:06.421Z,17.81
2018-07-24T04:27:05.696Z,17.88
2018-07-24T04:28:05.528Z,18.00
2018-07-24T04:29:06.504Z,18.12
2018-07-24T04:30:06.266Z,18.25
2018-07-24T04:31:05.797Z,18.38
2018-07-24T04:32:05.662Z,18.50
2018-07-24T04:33:05.613Z,18.62
2018-07-24T04:34:05.489Z,18.75
2018-07-24T04:35:05.998Z,18.88
2018-07-24T04:36:05.531Z,19.00
2018-07-24T04:37:05.708Z,19.19
2018-07-24T04:38:06.107Z,19.31
2018-07-24T04:39:05.626Z,19.44
2018-07-24T04:40:06.278Z,19.56
2018-07-24T04:41:05.856Z,19.69
2018-07-24T04:42:05.536Z,19.88
2018-07-24T04:43:06.100Z,20.00
2018-07-24T04:44:06.481Z,20.12
2018-07-24T04:45:06.024Z,20.31
2018-07-24T04:46:05.862Z,20.44
2018-07-24T04:47:05.780Z,20.62
2018-07-24T04:48:05.626Z,20.81
2018-07-24T04:49:06.338Z,20.94
2018-07-24T04:50:05.627Z,21.12
2018-07-24T04:51:07.154Z,21.25
2018-07-24T04:52:06.020Z,21.44
2018-07-24T04:53:11.139Z,21.62
2018-07-24T04:54:06.354Z,21.75
2018-07-24T04:55:05.855Z,21.94
2018-07-24T04:56:06.618Z,22.12
2018-07-24T04:57:06.634Z,22.25
2018-07-24T04:58:06.864Z,22.44
2018-07-24T04:59:07.074Z,22.62
2018-07-24T05:00:05.833Z,22.81
2018-07-24T05:01:06.417Z,22.94
2018-07-24T05:02:06.425Z,23.12
2018-07-24T05:03:06.417Z,23.31
2018-07-24T05:04:05.860Z,23.50
2018-07-24T05:05:05.766Z,23.69
2018-07-24T05:06:06.817Z,23.88
2018-07-24T05:07:06.713Z,24.00
2018-07-24T05:08:06.111Z,24.19
2018-07-24T05:09:06.191Z,24.38
2018-07-24T05:10:06.149Z,24.50
2018-07-24T05:11:06.033Z,24.69
2018-07-24T05:12:05.790Z,24.88
2018-07-24T05:13:06.243Z,25.00
2018-07-24T05:14:06.511Z,25.19
2018-07-24T05:15:06.033Z,25.38
2018-07-24T05:16:06.667Z,25.56
2018-07-24T05:17:06.002Z,25.75
2018-07-24T05:18:07.019Z,25.94
2018-07-24T05:19:06.281Z,26.12
2018-07-24T05:20:06.516Z,26.38
2018-07-24T05:21:05.932Z,26.62
2018-07-24T05:22:06.093Z,26.88
2018-07-24T05:23:06.197Z,27.19
2018-07-24T05:24:06.102Z,27.50
2018-07-24T05:25:06.547Z,27.81
2018-07-24T05:26:06.266Z,28.12
2018-07-24T05:27:06.434Z,28.50
2018-07-24T05:28:05.547Z,28.81
2018-07-24T05:29:06.621Z,29.19
2018-07-24T05:30:06.982Z,29.56
2018-07-24T05:31:11.209Z,29.88
2018-07-24T05:32:06.019Z,30.25
2018-07-24T05:33:06.014Z,30.56
2018-07-24T05:34:06.084Z,30.81
2018-07-24T05:35:05.784Z,31.06
2018-07-24T05:36:05.616Z,31.19
2018-07-24T05:37:06.357Z,31.38
2018-07-24T05:38:05.787Z,31.62
2018-07-24T05:39:11.143Z,31.81
2018-07-24T05:40:05.646Z,32.00
2018-07-24T05:41:05.781Z,32.12
2018-07-24T05:42:05.617Z,32.25
2018-07-24T05:43:06.019Z,32.38
2018-07-24T05:44:05.976Z,32.50
2018-07-24T05:45:05.593Z,32.62
2018-07-24T05:46:05.704Z,32.75
2018-07-24T05:47:06.331Z,32.81
2018-07-24T05:48:05.681Z,32.94
2018-07-24T05:49:06.340Z,33.00
2018-07-24T05:50:11.302Z,33.06
2018-07-24T05:51:06.509Z,33.19
2018-07-24T05:52:05.855Z,33.25
2018-07-24T05:53:06.417Z,33.31
2018-07-24T05:54:06.184Z,33.38
2018-07-24T05:55:06.277Z,33.44
2018-07-24T05:56:06.118Z,33.44
2018-07-24T05:57:06.113Z,33.50
2018-07-24T05:58:05.999Z,33.56
2018-07-24T05:59:05.949Z,33.62
2018-07-24T06:00:05.550Z,33.69
2018-07-24T06:01:06.697Z,33.75
2018-07-24T06:02:06.113Z,33.75
2018-07-24T06:03:05.888Z,33.81
2018-07-24T06:04:06.341Z,33.81
2018-07-24T06:05:06.335Z,33.88
2018-07-24T06:06:06.390Z,33.81
2018-07-24T06:07:05.793Z,33.81
2018-07-24T06:08:07.244Z,33.81
2018-07-24T06:09:06.379Z,33.81
2018-07-24T06:10:06.262Z,33.75
2018-07-24T06:11:05.767Z,33.69
2018-07-24T06:12:10.637Z,33.69
2018-07-24T06:13:05.885Z,33.62
2018-07-24T06:14:05.474Z,33.56
2018-07-24T06:15:06.218Z,33.50
2018-07-24T06:16:05.610Z,33.44
2018-07-24T06:17:05.785Z,33.38
2018-07-24T06:18:05.865Z,33.31
2018-07-24T06:19:05.711Z,33.19
2018-07-24T06:20:10.607Z,33.12
2018-07-24T06:21:05.944Z,33.00
2018-07-24T06:22:06.171Z,32.94
2018-07-24T06:23:05.969Z,32.81
2018-07-24T06:24:05.834Z,32.69
2018-07-24T06:25:11.104Z,32.69
2018-07-24T06:26:06.297Z,32.69
2018-07-24T06:27:06.725Z,32.75
2018-07-24T06:28:05.867Z,32.75
2018-07-24T06:29:05.548Z,32.75
2018-07-24T06:30:06.231Z,32.81
2018-07-24T06:31:06.348Z,32.88
2018-07-24T06:32:06.247Z,32.88
2018-07-24T06:33:06.111Z,33.00
2018-07-24T06:34:06.424Z,33.06
2018-07-24T06:35:06.562Z,33.06
2018-07-24T06:36:05.859Z,33.19
2018-07-24T06:37:05.967Z,33.25
2018-07-24T06:38:05.635Z,33.25
2018-07-24T06:39:05.780Z,33.25
2018-07-24T06:40:05.913Z,33.25
2018-07-24T06:41:10.820Z,33.25
2018-07-24T06:42:06.291Z,33.38
2018-07-24T06:43:06.388Z,33.38
2018-07-24T06:44:11.159Z,33.38
2018-07-24T06:45:06.152Z,33.44
2018-07-24T06:46:05.867Z,33.56
2018-07-24T06:47:10.486Z,33.56
2018-07-24T06:48:06.124Z,33.62
2018-07-24T06:49:05.668Z,33.69
2018-07-24T06:50:06.419Z,33.69
2018-07-24T06:51:10.956Z,33.75
2018-07-24T06:52:05.545Z,33.81
2018-07-24T06:53:05.543Z,33.81
2018-07-24T06:54:06.279Z,33.88
2018-07-24T06:55:05.464Z,33.94
2018-07-24T06:56:06.315Z,33.94
2018-07-24T06:57:05.934Z,34.00
2018-07-24T06:58:10.652Z,34.06
2018-07-24T06:59:06.180Z,34.12
2018-07-24T07:00:06.474Z,34.12
2018-07-24T07:01:06.331Z,34.19
2018-07-24T07:02:06.263Z,34.25
2018-07-24T07:03:06.269Z,34.25
2018-07-24T07:04:05.860Z,34.31
2018-07-24T07:05:06.156Z,34.31
2018-07-24T07:06:05.533Z,34.31
2018-07-24T07:07:06.037Z,34.25
2018-07-24T07:08:06.339Z,34.25
2018-07-24T07:09:06.097Z,34.31
2018-07-24T07:10:05.579Z,34.38
2018-07-24T07:11:05.548Z,34.44
2018-07-24T07:12:06.422Z,34.44
2018-07-24T07:13:05.887Z,34.50
2018-07-24T07:14:06.341Z,34.56
2018-07-24T07:15:05.946Z,34.62
2018-07-24T07:16:05.470Z,34.62
2018-07-24T07:17:06.109Z,34.62
2018-07-24T07:18:06.268Z,34.56
2018-07-24T07:19:06.171Z,34.56
2018-07-24T07:20:06.033Z,34.50
2018-07-24T07:21:05.788Z,34.50
2018-07-24T07:22:06.343Z,34.50
2018-07-24T07:23:06.206Z,34.44
2018-07-24T07:24:05.788Z,34.44
2018-07-24T07:25:10.620Z,34.44
2018-07-24T07:26:06.376Z,34.50
2018-07-24T07:27:06.338Z,34.44
2018-07-24T07:28:06.514Z,34.38
2018-07-24T07:29:05.999Z,34.38
2018-07-24T07:30:06.645Z,34.38
2018-07-24T07:31:06.663Z,34.25
2018-07-24T07:32:06.195Z,34.31
2018-07-24T07:33:05.940Z,34.19
2018-07-24T07:34:05.919Z,34.19
2018-07-24T07:35:06.100Z,34.19
2018-07-24T07:36:06.120Z,34.19
2018-07-24T07:37:06.123Z,34.19
2018-07-24T07:38:05.629Z,34.25
2018-07-24T07:39:06.183Z,34.31
2018-07-24T07:40:06.105Z,34.38
2018-07-24T07:41:06.744Z,34.44
2018-07-24T07:42:05.699Z,34.44
2018-07-24T07:43:05.982Z,34.31
2018-07-24T07:44:11.467Z,34.38
2018-07-24T07:45:10.843Z,34.38
2018-07-24T07:46:05.471Z,34.44
2018-07-24T07:47:11.069Z,34.50
2018-07-24T07:48:05.543Z,34.44
2018-07-24T07:49:06.646Z,34.38
2018-07-24T07:50:06.552Z,34.31
2018-07-24T07:51:06.345Z,34.38
2018-07-24T07:52:05.944Z,34.44
2018-07-24T07:53:10.638Z,34.44
2018-07-24T07:54:06.362Z,34.31
2018-07-24T07:55:06.130Z,34.12
2018-07-24T07:56:10.967Z,34.00
2018-07-24T07:57:05.470Z,33.94
2018-07-24T07:58:11.225Z,33.94
2018-07-24T07:59:05.716Z,34.00
2018-07-24T08:00:05.948Z,34.06
2018-07-24T08:01:05.622Z,34.06
2018-07-24T08:02:06.420Z,34.00
2018-07-24T08:03:06.070Z,33.88
2018-07-24T08:04:10.919Z,33.75
2018-07-24T08:05:06.343Z,33.62
2018-07-24T08:06:06.261Z,33.38
2018-07-24T08:07:05.786Z,33.31
2018-07-24T08:08:05.696Z,33.19
2018-07-24T08:09:06.027Z,33.12
2018-07-24T08:10:05.713Z,33.19
2018-07-24T08:11:06.427Z,33.06
2018-07-24T08:12:05.866Z,33.00
2018-07-24T08:13:06.336Z,32.88
2018-07-24T08:14:06.256Z,32.94
2018-07-24T08:15:11.037Z,33.00
2018-07-24T08:16:05.552Z,32.94
2018-07-24T08:17:05.733Z,33.00
2018-07-24T08:18:05.789Z,33.00
2018-07-24T08:19:05.650Z,32.94
2018-07-24T08:20:05.793Z,33.00
2018-07-24T08:21:06.257Z,33.06
2018-07-24T08:22:05.673Z,33.12
2018-07-24T08:23:06.282Z,33.19
2018-07-24T08:24:05.634Z,33.19
2018-07-24T08:25:05.796Z,33.25
2018-07-24T08:26:06.336Z,33.19
2018-07-24T08:27:06.501Z,33.00
2018-07-24T08:28:06.091Z,32.88
2018-07-24T08:29:07.051Z,32.81
2018-07-24T08:30:05.952Z,32.81
2018-07-24T08:31:05.894Z,32.88
2018-07-24T08:32:05.760Z,32.81
2018-07-24T08:33:05.463Z,32.81
2018-07-24T08:34:06.345Z,32.81
2018-07-24T08:35:11.186Z,32.88
2018-07-24T08:36:05.776Z,32.81
2018-07-24T08:37:05.624Z,32.69
2018-07-24T08:38:06.419Z,32.62
2018-07-24T08:39:06.124Z,32.62
2018-07-24T08:40:05.937Z,32.62
2018-07-24T08:41:05.941Z,32.62
2018-07-24T08:42:15.997Z,32.62
2018-07-24T08:43:05.708Z,32.62
2018-07-24T08:44:06.261Z,32.56
2018-07-24T08:45:06.125Z,32.56
2018-07-24T08:46:05.965Z,32.44
2018-07-24T08:47:05.611Z,32.44
2018-07-24T08:48:10.654Z,32.50
2018-07-24T08:49:05.987Z,32.50
2018-07-24T08:50:05.538Z,32.44
2018-07-24T08:51:06.287Z,32.50
2018-07-24T08:52:05.613Z,32.44
2018-07-24T08:53:05.704Z,32.50
2018-07-24T08:54:06.399Z,32.44
2018-07-24T08:55:05.932Z,32.38
2018-07-24T08:56:06.378Z,32.31
2018-07-24T08:57:06.486Z,32.38
2018-07-24T08:58:05.775Z,32.31
2018-07-24T08:59:05.537Z,32.19
2018-07-24T09:00:06.342Z,32.12
2018-07-24T09:01:06.166Z,32.12
2018-07-24T09:02:05.698Z,31.88
2018-07-24T09:03:06.016Z,31.81
2018-07-24T09:04:05.938Z,31.88
2018-07-24T09:05:06.193Z,31.88
2018-07-24T09:06:10.660Z,31.94
2018-07-24T09:07:06.348Z,32.00
2018-07-24T09:08:05.876Z,32.00
2018-07-24T09:09:06.356Z,32.06
2018-07-24T09:10:05.727Z,32.06
2018-07-24T09:11:05.446Z,32.12
2018-07-24T09:12:05.700Z,32.12
2018-07-24T09:13:05.620Z,32.12
2018-07-24T09:14:05.380Z,32.06
2018-07-24T09:15:06.017Z,32.00
2018-07-24T09:16:05.891Z,32.00
2018-07-24T09:17:05.667Z,31.88
2018-07-24T09:18:06.034Z,31.81
2018-07-24T09:19:05.698Z,31.75
2018-07-24T09:20:06.476Z,31.75
2018-07-24T09:21:05.696Z,31.69
2018-07-24T09:22:06.038Z,31.69
2018-07-24T09:23:05.873Z,31.69
2018-07-24T09:24:10.551Z,31.62
2018-07-24T09:25:05.879Z,31.50
2018-07-24T09:26:06.264Z,31.25
2018-07-24T09:27:06.317Z,31.06
2018-07-24T09:28:05.644Z,31.00
2018-07-24T09:29:05.537Z,30.94
2018-07-24T09:30:06.420Z,30.94
2018-07-24T09:31:05.542Z,30.94
2018-07-24T09:32:06.147Z,31.00
2018-07-24T09:33:07.120Z,31.06
2018-07-24T09:34:05.775Z,31.12
2018-07-24T09:35:10.809Z,31.12
2018-07-24T09:36:06.402Z,31.19
2018-07-24T09:37:05.621Z,31.25
2018-07-24T09:38:06.175Z,31.25
2018-07-24T09:39:05.869Z,31.25
2018-07-24T09:40:05.386Z,31.31
2018-07-24T09:41:05.454Z,31.31
2018-07-24T09:42:06.195Z,31.31
2018-07-24T09:43:10.681Z,31.31
2018-07-24T09:44:05.931Z,31.31
2018-07-24T09:45:06.023Z,31.38
2018-07-24T09:46:05.451Z,31.38
2018-07-24T09:47:06.104Z,31.31
2018-07-24T09:48:05.697Z,31.38
2018-07-24T09:49:06.098Z,31.31
2018-07-24T09:50:05.459Z,31.38
2018-07-24T09:51:05.866Z,31.38
2018-07-24T09:52:06.766Z,31.38
2018-07-24T09:53:06.183Z,31.38
2018-07-24T09:54:05.872Z,31.38
2018-07-24T09:55:06.413Z,31.31
2018-07-24T09:56:06.089Z,31.38
2018-07-24T09:57:06.385Z,31.38
2018-07-24T09:58:06.491Z,31.31
2018-07-24T09:59:06.610Z,31.31
2018-07-24T10:00:06.110Z,31.38
2018-07-24T10:01:05.699Z,31.38
2018-07-24T10:02:06.258Z,31.31
2018-07-24T10:03:06.171Z,31.31
2018-07-24T10:04:06.115Z,31.19
2018-07-24T10:05:06.023Z,31.19
2018-07-24T10:06:11.104Z,31.19
2018-07-24T10:07:06.343Z,31.12
2018-07-24T10:08:06.257Z,31.06
2018-07-24T10:09:05.833Z,31.06
2018-07-24T10:10:06.252Z,31.12
2018-07-24T10:11:06.490Z,31.06
2018-07-24T10:12:06.261Z,31.06
2018-07-24T10:13:06.372Z,31.00
2018-07-24T10:14:11.019Z,31.00
2018-07-24T10:15:05.764Z,30.94
2018-07-24T10:16:06.713Z,30.88
2018-07-24T10:17:06.517Z,30.81
2018-07-24T10:18:05.938Z,30.75
2018-07-24T10:19:05.452Z,30.75
2018-07-24T10:20:06.047Z,30.69
2018-07-24T10:21:06.021Z,30.69
2018-07-24T10:22:05.742Z,30.69
2018-07-24T10:23:06.333Z,30.75
2018-07-24T10:24:05.788Z,30.75
2018-07-24T10:25:05.857Z,30.75
2018-07-24T10:26:11.371Z,30.69
2018-07-24T10:27:05.942Z,30.69
2018-07-24T10:28:05.616Z,30.75
2018-07-24T10:29:05.695Z,30.81
2018-07-24T10:30:05.989Z,30.81
2018-07-24T10:31:05.943Z,30.81
2018-07-24T10:32:06.211Z,30.69
2018-07-24T10:33:05.698Z,30.69
2018-07-24T10:34:06.269Z,30.62
2018-07-24T10:35:05.941Z,30.62
2018-07-24T10:36:06.800Z,30.62
2018-07-24T10:37:06.046Z,30.62
2018-07-24T10:38:10.658Z,30.56
2018-07-24T10:39:06.101Z,30.56
2018-07-24T10:40:06.024Z,30.56
2018-07-24T10:41:06.030Z,30.50
2018-07-24T10:42:06.253Z,30.56
2018-07-24T10:43:05.781Z,30.56
2018-07-24T10:44:06.769Z,30.62
2018-07-24T10:45:05.703Z,30.62
2018-07-24T10:46:06.813Z,30.69
2018-07-24T10:47:06.178Z,30.69
2018-07-24T10:48:05.782Z,30.69
2018-07-24T10:49:06.168Z,30.69
2018-07-24T10:50:05.638Z,30.69
2018-07-24T10:51:11.018Z,30.75
2018-07-24T10:52:06.177Z,30.75
2018-07-24T10:53:05.940Z,30.69
2018-07-24T10:54:05.456Z,30.69
2018-07-24T10:55:06.015Z,30.69
2018-07-24T10:56:06.101Z,30.62
2018-07-24T10:57:05.772Z,30.56
2018-07-24T10:58:05.606Z,30.44
2018-07-24T10:59:05.694Z,30.38
2018-07-24T11:00:06.176Z,30.44
2018-07-24T11:01:06.262Z,30.44
2018-07-24T11:02:06.262Z,30.50
2018-07-24T11:03:05.947Z,30.50
2018-07-24T11:04:06.591Z,30.50
2018-07-24T11:05:06.171Z,30.56
2018-07-24T11:06:05.771Z,30.56
2018-07-24T11:07:06.116Z,30.56
2018-07-24T11:08:06.290Z,30.62
2018-07-24T11:09:06.203Z,30.62
2018-07-24T11:10:05.912Z,30.62
2018-07-24T11:11:05.945Z,30.56
2018-07-24T11:12:11.315Z,30.62
2018-07-24T11:13:05.777Z,30.69
2018-07-24T11:14:05.615Z,30.75
2018-07-24T11:15:10.648Z,30.75
2018-07-24T11:16:05.861Z,30.81
2018-07-24T11:17:06.334Z,30.94
2018-07-24T11:18:06.458Z,30.94
2018-07-24T11:19:06.110Z,30.81
2018-07-24T11:20:06.512Z,30.88
2018-07-24T11:21:05.775Z,30.81
2018-07-24T11:22:06.721Z,30.88
2018-07-24T11:23:06.775Z,30.88
2018-07-24T11:24:06.611Z,30.81
2018-07-24T11:25:06.165Z,30.81
2018-07-24T11:26:05.839Z,30.75
2018-07-24T11:27:05.459Z,30.81
2018-07-24T11:28:06.191Z,30.88
2018-07-24T11:29:05.617Z,30.88
2018-07-24T11:30:06.193Z,30.88
2018-07-24T11:31:06.009Z,30.81
2018-07-24T11:32:10.529Z,30.81
2018-07-24T11:33:06.186Z,30.81
2018-07-24T11:34:05.868Z,30.88
2018-07-24T11:35:05.687Z,30.88
2018-07-24T11:36:06.459Z,30.94
2018-07-24T11:37:05.452Z,30.94
2018-07-24T11:38:05.776Z,31.00
2018-07-24T11:39:06.643Z,31.06
2018-07-24T11:40:06.015Z,31.12
2018-07-24T11:41:05.773Z,31.12
2018-07-24T11:42:05.444Z,31.12
2018-07-24T11:43:05.500Z,31.19
2018-07-24T11:44:05.581Z,31.19
2018-07-24T11:45:06.276Z,31.25
2018-07-24T11:46:11.012Z,31.25
2018-07-24T11:47:06.630Z,31.19
2018-07-24T11:48:11.333Z,31.19
2018-07-24T11:49:05.699Z,31.19
2018-07-24T11:50:06.550Z,31.19
2018-07-24T11:51:05.859Z,31.25
2018-07-24T11:52:06.027Z,31.25
2018-07-24T11:53:05.453Z,31.25
2018-07-24T11:54:10.894Z,31.19
2018-07-24T11:55:06.095Z,31.19
2018-07-24T11:56:06.424Z,31.06
2018-07-24T11:57:06.115Z,31.06
2018-07-24T11:58:05.729Z,31.06
2018-07-24T11:59:06.020Z,31.00
2018-07-24T12:00:05.709Z,31.00
2018-07-24T12:01:06.261Z,31.00
2018-07-24T12:02:06.337Z,31.00
2018-07-24T12:03:10.881Z,31.06
2018-07-24T12:04:05.551Z,31.06
2018-07-24T12:05:06.420Z,31.00
2018-07-24T12:06:06.067Z,31.06
2018-07-24T12:07:05.693Z,31.06
2018-07-24T12:08:05.772Z,31.06
2018-07-24T12:09:06.623Z,31.06
2018-07-24T12:10:05.867Z,31.06
2018-07-24T12:11:05.947Z,31.06
2018-07-24T12:12:05.943Z,31.12
2018-07-24T12:13:06.061Z,31.19
2018-07-24T12:14:06.454Z,31.19
2018-07-24T12:15:06.018Z,31.25
2018-07-24T12:16:05.466Z,31.25
2018-07-24T12:17:11.450Z,31.25
2018-07-24T12:18:05.873Z,31.25
2018-07-24T12:19:05.611Z,31.31
2018-07-24T12:20:05.541Z,31.31
2018-07-24T12:21:06.354Z,31.25
2018-07-24T12:22:05.540Z,31.25
2018-07-24T12:23:06.417Z,31.25
2018-07-24T12:24:05.851Z,31.25
2018-07-24T12:25:05.965Z,31.31
2018-07-24T12:26:06.016Z,31.31
2018-07-24T12:27:05.704Z,31.38
2018-07-24T12:28:05.857Z,31.44
2018-07-24T12:29:06.080Z,31.50
2018-07-24T12:30:06.457Z,31.50
2018-07-24T12:31:05.459Z,31.56
2018-07-24T12:32:06.168Z,31.56
2018-07-24T12:33:06.649Z,31.56
2018-07-24T12:34:11.255Z,31.62
2018-07-24T12:35:05.726Z,31.62
2018-07-24T12:36:06.197Z,31.69
2018-07-24T12:37:06.265Z,31.69
2018-07-24T12:38:06.252Z,31.75
2018-07-24T12:39:06.171Z,31.75
2018-07-24T12:40:06.338Z,31.75
2018-07-24T12:41:06.169Z,31.81
2018-07-24T12:42:05.718Z,31.81
2018-07-24T12:43:05.732Z,31.81
2018-07-24T12:44:05.886Z,31.81
2018-07-24T12:45:06.253Z,31.75
2018-07-24T12:46:05.774Z,31.75
2018-07-24T12:47:05.540Z,31.81
2018-07-24T12:48:06.194Z,31.81
2018-07-24T12:49:05.943Z,31.81
2018-07-24T12:50:05.686Z,31.81
2018-07-24T12:51:05.794Z,31.88
2018-07-24T12:52:06.028Z,31.81